Airfield :
LOGIN :

Register | Disclaimer

   EN    FR    IT 

 










Legend :    VFR   Marginal VFR   IFR   Intensive IFR   Very Intensive IFR
Visi :
Ceiling :
>= 8 km
>= 3000ft
5 to 8 km
1000 to 3000 ft
1500m to 5 km
500 to 1000 ft
800 to 1500m
200 to 500 ft
< 800m
< 200 ft
Symbols :   Thunderstorms  Fog  Heavy snow  Heavy precipitations  Wind > 20 kt
SIGMETs :     Misc.  Thunderstorms  Icing  Turbulence  Mountain Waves  Volcanic Ashes







- Airport Elevation : 161 ft
- IATA code : PMF


LIMP - Parma

CURRENT METAR :
  • 211405Z 30006KT 5000 BR SCT050 23/22 Q1011 RETSRA

EXPIRED METARs :
  • 211250Z 30009KT 7000 -TSRA SCT020 BKN050CB 23/20 Q1012
  • 211150Z 32006KT 9999 FEW040 26/19 Q1012

TAF TAF LIMP
Valid from the 21 at 12:00 until the 22 at 12:00 UTC


211100Z 2112/2212 VRB05KT 9999 SCT050
PROB30
TEMPO 2112/2118 TSRA
TEMPO 2122/2202 TSRA
No reported NOTAMs for that airfield.
3 SIGMETs reported for the Milano FIR (LIMM) :
 
SIGMET 7  cancelation
LIMM SIGMET 9 VALID 211353/211635 LIIP
LIMM MILANO FIR CNL SIGMET 7 211235/211635=
Embedded thunderstorms
LIMM SIGMET 8 VALID 211400/211800 LIIP
LIMM MILANO FIR EMBD TS OBS ENTIRE FIR TOP ABV FL400 STNR NC=
SIGMET 7  CANCELED :
Embedded thunderstorms
LIMM SIGMET 7 VALID 211235/211635 LIIP
LIMM MILANO FIR EMBD TS OBS NW OF LINE N4338 E01123 - N4517 E01306 TOP ABV FL400 STNR NC=



MET'MAP, your aeronautical weather chart ! - Copyright ORBIFLY December 2007 - Disclaimer

ORBIFLY MET'MAP TEAM :

Programming & Development : Alexandra Zaïnal
Concept & Development : Baudouin d'Aumeries
Co-Development & Prog : Marc-Olivier Méhu
Technical & hardware support : Manuel Goepfert

Contact : metmap@orbifly.com




SOURCES & CREDITS :

   NOAA